createdAt,value
2023-03-12T00:02:49.233Z,98864.2
2023-03-12T00:08:25.876Z,98866.2
2023-03-12T00:14:01.329Z,98862.2
2023-03-12T00:19:38.059Z,98851.5
2023-03-12T00:25:13.529Z,98855.1
2023-03-12T00:30:48.615Z,98854.3
2023-03-12T00:36:24.004Z,98861
2023-03-12T00:41:59.225Z,98860.5
2023-03-12T00:47:34.798Z,98854.5
2023-03-12T00:53:10.409Z,98862.4
2023-03-12T00:58:45.451Z,98874
2023-03-12T01:04:20.930Z,98885.9
2023-03-12T01:09:57.266Z,98874.1
2023-03-12T01:15:32.590Z,98874.1
2023-03-12T01:21:07.732Z,98877.2
2023-03-12T01:26:43.351Z,98879.2
2023-03-12T01:32:18.850Z,98891.9
2023-03-12T01:37:54.481Z,98879.4
2023-03-12T01:43:30.820Z,98874.3
2023-03-12T01:49:06.017Z,98884.7
2023-03-12T01:54:41.199Z,98893.9
2023-03-12T02:00:16.521Z,98889.3
2023-03-12T02:05:51.829Z,98881.8
2023-03-12T02:11:27.421Z,98888
2023-03-12T02:17:02.849Z,98892.6
2023-03-12T02:22:37.934Z,98894.7
2023-03-12T02:28:13.409Z,98894.3
2023-03-12T02:33:48.709Z,98900.6
2023-03-12T02:39:24.217Z,98905.4
2023-03-12T02:44:59.516Z,98908.3
2023-03-12T02:50:56.137Z,98911.4
2023-03-12T02:56:31.096Z,98910.5
2023-03-12T03:02:06.275Z,98906.4
2023-03-12T03:07:42.355Z,98911.3
2023-03-12T03:13:26.576Z,98908.9
2023-03-12T03:19:02.416Z,98914.1
2023-03-12T03:24:37.813Z,98913.7
2023-03-12T03:30:13.678Z,98907.9
2023-03-12T03:35:49.269Z,98911.8
2023-03-12T03:41:24.987Z,98908.1
2023-03-12T03:46:59.785Z,98911.7
2023-03-12T03:52:35.320Z,98929.8
2023-03-12T03:58:10.263Z,98948.3
2023-03-12T04:03:46.112Z,98955.9
2023-03-12T04:09:21.316Z,98961.5
2023-03-12T04:14:57.162Z,98971.8
2023-03-12T04:20:32.326Z,98970.4
2023-03-12T04:26:07.817Z,98973.7
2023-03-12T04:31:43.693Z,98971.6
2023-03-12T04:37:29.405Z,98975.5
2023-03-12T04:43:05.008Z,98982.2
2023-03-12T04:48:41.357Z,98991.5
2023-03-12T04:54:17.728Z,98988.2
2023-03-12T04:59:52.785Z,98987.9
2023-03-12T05:05:28.670Z,98986.2
2023-03-12T05:11:03.918Z,98979.9
2023-03-12T05:16:41.032Z,98974.1
2023-03-12T05:22:16.936Z,98975.9
2023-03-12T05:27:52.076Z,98972.4
2023-03-12T05:33:27.624Z,98972.2
2023-03-12T05:39:02.814Z,98967
2023-03-12T05:44:37.874Z,98963.8
2023-03-12T05:50:12.993Z,98960.5
2023-03-12T05:55:49.415Z,98963.8
2023-03-12T06:01:25.509Z,98965
2023-03-12T06:07:00.673Z,98964.4
2023-03-12T06:12:35.954Z,98963.9
2023-03-12T06:18:12.048Z,98969.2
2023-03-12T06:23:47.399Z,98965.6
2023-03-12T06:29:22.534Z,98971.4
2023-03-12T06:34:58.309Z,98969.3
2023-03-12T06:40:33.793Z,98970
2023-03-12T06:46:09.589Z,98975.5
2023-03-12T06:51:45.951Z,98983.4
2023-03-12T06:57:21.458Z,98984.6
2023-03-12T07:03:18.083Z,98989.1
2023-03-12T07:08:53.858Z,98991.7
2023-03-12T07:14:29.052Z,98996.5
2023-03-12T07:20:05.288Z,99000
2023-03-12T07:25:40.650Z,98996.6
2023-03-12T07:31:16.125Z,98994.6
2023-03-12T07:36:54.121Z,98997.4
2023-03-12T07:42:31.285Z,99001.8
2023-03-12T07:48:07.735Z,99000.7
2023-03-12T07:53:44.324Z,98991.5
2023-03-12T07:59:20.468Z,98985.4
2023-03-12T08:04:56.349Z,98994.7
2023-03-12T08:10:33.584Z,98993
2023-03-12T08:16:10.272Z,98998.2
2023-03-12T08:21:46.556Z,98997.3
2023-03-12T08:27:21.911Z,98993.7
2023-03-12T08:32:57.256Z,98988.3
2023-03-12T08:38:33.091Z,98993.6
2023-03-12T08:44:08.473Z,98999.7
2023-03-12T08:49:44.140Z,98995.4
2023-03-12T08:55:19.948Z,98994.9
2023-03-12T09:00:55.253Z,99001.3
2023-03-12T09:06:32.788Z,98996.1
2023-03-12T09:12:09.119Z,99003.2
2023-03-12T09:17:48.349Z,99003.7
2023-03-12T09:23:23.803Z,98991.9
2023-03-12T09:28:58.789Z,99002
2023-03-12T09:34:39.661Z,99005
2023-03-12T09:40:14.716Z,99000.8
2023-03-12T09:45:51.267Z,98998
2023-03-12T09:51:29.607Z,98993.6
2023-03-12T09:57:05.823Z,99003.7
2023-03-12T10:02:41.846Z,98999.6
2023-03-12T10:08:30.946Z,98994.2
2023-03-12T10:14:08.222Z,98988.9
2023-03-12T10:19:43.341Z,98978.6
2023-03-12T10:25:18.679Z,98969.1
2023-03-12T10:30:54.007Z,98966.7
2023-03-12T10:36:29.653Z,98960
2023-03-12T10:42:05.157Z,98949.8
2023-03-12T10:47:41.148Z,98946.8
2023-03-12T10:53:16.728Z,98947.2
2023-03-12T10:58:51.966Z,98957
2023-03-12T11:04:31.128Z,98963.2
2023-03-12T11:10:08.664Z,98964.9
2023-03-12T11:15:52.417Z,98968.2
2023-03-12T11:21:29.986Z,98954
2023-03-12T11:27:07.356Z,98949.3
2023-03-12T11:32:45.572Z,98938
2023-03-12T11:38:21.863Z,98934.4
2023-03-12T11:43:58.779Z,98935.1
2023-03-12T11:49:34.079Z,98926
2023-03-12T11:55:09.674Z,98921
2023-03-12T12:00:48.559Z,98914.9
2023-03-12T12:06:23.676Z,98911
2023-03-12T12:11:58.755Z,98901.3
2023-03-12T12:17:33.662Z,98892.2
2023-03-12T12:23:10.402Z,98876.3
2023-03-12T12:28:47.287Z,98867.4
2023-03-12T12:34:23.204Z,98864.7
2023-03-12T12:39:58.839Z,98863.9
2023-03-12T12:45:34.607Z,98853.6
2023-03-12T12:51:10.704Z,98854.6
2023-03-12T12:56:48.445Z,98852.4
2023-03-12T13:02:29.628Z,98842.2
2023-03-12T13:08:10.063Z,98836.5
2023-03-12T13:13:45.498Z,98838.6
2023-03-12T13:19:21.222Z,98823
2023-03-12T13:24:56.867Z,98818.7
2023-03-12T13:30:32.490Z,98814.2
2023-03-12T13:36:09.669Z,98808.1
2023-03-12T13:41:45.940Z,98802.8
2023-03-12T13:47:21.625Z,98801.2
2023-03-12T13:52:56.923Z,98795.1
2023-03-12T13:58:32.259Z,98801.3
2023-03-12T14:04:18.330Z,98802
2023-03-12T14:09:54.100Z,98795.9
2023-03-12T14:15:30.118Z,98794.2
2023-03-12T14:21:05.719Z,98788.6
2023-03-12T14:26:40.699Z,98789
2023-03-12T14:32:16.055Z,98780.1
2023-03-12T14:37:52.367Z,98775.7
2023-03-12T14:43:28.016Z,98779.1
2023-03-12T14:49:03.667Z,98783.2
2023-03-12T14:55:23.082Z,98779
2023-03-12T15:00:56.110Z,98781.3
2023-03-12T15:06:31.305Z,98774.3
2023-03-12T15:12:07.509Z,98774.6
2023-03-12T15:17:42.804Z,98773.5
2023-03-12T15:23:18.307Z,98760.1
2023-03-12T15:28:55.111Z,98751.5
2023-03-12T15:34:31.377Z,98741
2023-03-12T15:40:08.018Z,98740.6
2023-03-12T15:45:44.250Z,98733.5
2023-03-12T15:51:21.796Z,98719.7
2023-03-12T15:56:57.458Z,98720.7
2023-03-12T16:02:33.049Z,98717.8
2023-03-12T16:08:08.798Z,98721.8
2023-03-12T16:13:43.788Z,98718.1
2023-03-12T16:19:19.473Z,98714.6
2023-03-12T16:24:55.176Z,98716.9
2023-03-12T16:30:30.080Z,98715.6
2023-03-12T16:36:05.861Z,98710.7
2023-03-12T16:41:41.157Z,98701.7
2023-03-12T16:47:16.758Z,98705.2
2023-03-12T16:52:53.128Z,98712.5
2023-03-12T16:58:28.517Z,98708.2
2023-03-12T17:04:25.338Z,98708.2
2023-03-12T17:10:01.459Z,98685.5
2023-03-12T17:15:36.458Z,98682.1
2023-03-12T17:21:12.929Z,98659.3
2023-03-12T17:26:48.238Z,98653.3
2023-03-12T17:32:23.610Z,98660.7
2023-03-12T17:37:59.874Z,98667.3
2023-03-12T17:43:35.257Z,98666
2023-03-12T17:49:10.197Z,98668.8
2023-03-12T17:55:08.520Z,98658.2
2023-03-12T18:00:45.438Z,98663.3
2023-03-12T18:06:23.657Z,98665.2
2023-03-12T18:11:58.588Z,98665.8
2023-03-12T18:17:34.231Z,98674.4
2023-03-12T18:23:09.611Z,98685.5
2023-03-12T18:28:44.959Z,98671.1
2023-03-12T18:34:29.102Z,98663.6
2023-03-12T18:40:05.272Z,98664
2023-03-12T18:45:40.794Z,98664.7
2023-03-12T18:51:17.363Z,98667.8
2023-03-12T18:56:52.513Z,98664.1
2023-03-12T19:02:29.298Z,98669.9
2023-03-12T19:08:23.303Z,98673.4
2023-03-12T19:14:01.214Z,98676.2
2023-03-12T19:19:47.497Z,98674.6
2023-03-12T19:25:23.049Z,98670.2
2023-03-12T19:30:58.110Z,98661.4
2023-03-12T19:36:33.683Z,98656.6
2023-03-12T19:42:08.667Z,98647.3
2023-03-12T19:47:44.156Z,98634.1
2023-03-12T19:53:41.608Z,98633.7
2023-03-12T19:59:15.295Z,98627.3
2023-03-12T20:04:51.191Z,98622.3
2023-03-12T20:10:26.521Z,98618.3
2023-03-12T20:16:02.422Z,98615.9
2023-03-12T20:21:38.070Z,98611.5
2023-03-12T20:27:13.386Z,98610.7
2023-03-12T20:32:50.159Z,98606.1
2023-03-12T20:38:25.957Z,98596.2
2023-03-12T20:44:01.335Z,98594.9
2023-03-12T20:49:37.356Z,98593.8
2023-03-12T20:55:34.480Z,98595.2
2023-03-12T21:01:07.751Z,98586.4
2023-03-12T21:06:43.433Z,98575.5
2023-03-12T21:12:18.807Z,98578.4
2023-03-12T21:17:53.905Z,98583.8
2023-03-12T21:23:29.892Z,98582.4
2023-03-12T21:29:05.435Z,98572.7
2023-03-12T21:34:40.835Z,98572.2
2023-03-12T21:40:16.061Z,98570.6
2023-03-12T21:45:51.452Z,98567
2023-03-12T21:51:27.793Z,98569.5
2023-03-12T21:57:04.180Z,98572.3
2023-03-12T22:02:39.969Z,98567.2
2023-03-12T22:08:15.666Z,98557.1
2023-03-12T22:13:53.704Z,98547.9
2023-03-12T22:19:29.541Z,98544
2023-03-12T22:25:05.111Z,98543.5
2023-03-12T22:30:41.001Z,98535.7
2023-03-12T22:36:16.517Z,98529.5
2023-03-12T22:41:52.266Z,98532.3
2023-03-12T22:47:27.823Z,98522.3
2023-03-12T22:53:02.744Z,98516.4
2023-03-12T22:58:39.117Z,98509.9
2023-03-12T23:04:14.927Z,98498.9
2023-03-12T23:09:50.751Z,98496.1
2023-03-12T23:15:42.283Z,98484.7
2023-03-12T23:21:17.876Z,98479.1
2023-03-12T23:26:53.004Z,98472.5
2023-03-12T23:32:29.039Z,98465.7
2023-03-12T23:38:05.971Z,98468
2023-03-12T23:43:42.052Z,98457
2023-03-12T23:49:17.549Z,98453.3
2023-03-12T23:54:53.128Z,98443.1
